Time;durP1;ratioP1;P1;durP2;ratioP2;P2;SDS_P1;SDS_P2;PMS_P1;PMS_P2;Temp;Humidity;BMP_temperature;BMP_pressure;BME280_temperature;BME280_humidity;BME280_pressure;Samples;Min_cycle;Max_cycle;Signal;HPM_P1;HPM_P2
2021/09/22 00:01:12;;;;;;;3.88;2.80;;;;;;;;;;5058711;28;20091;-81
2021/09/22 00:03:56;;;;;;;3.33;2.75;;;;;;;;;;5065478;28;20419;-81
2021/09/22 00:06:41;;;;;;;3.38;2.72;;;;;;;;;;5058638;28;20063;-76
2021/09/22 00:09:26;;;;;;;3.38;2.65;;;;;;;;;;5049463;28;20062;-77
2021/09/22 00:12:10;;;;;;;3.25;2.60;;;;;;;;;;5063731;28;20093;-81
2021/09/22 00:14:55;;;;;;;4.82;2.85;;;;;;;;;;5050032;28;20102;-82
2021/09/22 00:17:39;;;;;;;4.30;3.20;;;;;;;;;;5052163;28;20052;-82
2021/09/22 00:20:25;;;;;;;5.78;3.08;;;;;;;;;;5062717;28;20063;-80
2021/09/22 00:23:09;;;;;;;4.68;3.10;;;;;;;;;;5062569;28;20044;-80
2021/09/22 00:25:54;;;;;;;3.95;2.97;;;;;;;;;;5063525;28;20112;-80
2021/09/22 00:28:39;;;;;;;3.75;2.80;;;;;;;;;;5055679;28;20030;-78
2021/09/22 00:31:23;;;;;;;4.38;2.92;;;;;;;;;;5084714;28;20097;-80
2021/09/22 00:34:07;;;;;;;4.10;3.00;;;;;;;;;;5052821;28;20075;-80
2021/09/22 00:36:52;;;;;;;5.57;3.22;;;;;;;;;;5078602;28;20059;-80
2021/09/22 00:39:36;;;;;;;4.25;3.00;;;;;;;;;;5075786;28;20039;-80
2021/09/22 00:42:21;;;;;;;4.53;2.90;;;;;;;;;;5078751;28;20094;-81
2021/09/22 00:45:09;;;;;;;3.95;3.08;;;;;;;;;;5078545;28;20520;-80
2021/09/22 00:47:54;;;;;;;5.15;3.20;;;;;;;;;;5078328;28;20707;-81
2021/09/22 00:50:39;;;;;;;4.47;3.15;;;;;;;;;;5047849;28;20548;-81
2021/09/22 00:53:23;;;;;;;5.45;3.15;;;;;;;;;;5053522;28;20035;-81
2021/09/22 00:56:08;;;;;;;3.60;2.78;;;;;;;;;;5051093;28;20071;-80
2021/09/22 00:58:53;;;;;;;4.13;3.22;;;;;;;;;;5064059;28;20485;-80
2021/09/22 01:01:37;;;;;;;4.10;3.00;;;;;;;;;;5054271;28;20087;-79
2021/09/22 01:04:22;;;;;;;4.28;2.80;;;;;;;;;;5049623;28;20247;-79
2021/09/22 01:07:11;;;;;;;4.93;2.92;;;;;;;;;;5049551;28;20044;-80
2021/09/22 01:09:55;;;;;;;4.85;3.17;;;;;;;;;;5049529;28;20043;-80
2021/09/22 01:12:40;;;;;;;4.85;2.88;;;;;;;;;;5035374;28;20437;-80
2021/09/22 01:15:25;;;;;;;3.72;2.90;;;;;;;;;;5050808;28;20130;-81
2021/09/22 01:18:16;;;;;;;4.55;2.83;;;;;;;;;;5050693;28;20048;-80
2021/09/22 01:21:01;;;;;;;4.88;3.08;;;;;;;;;;5061403;28;20036;-80
2021/09/22 01:23:45;;;;;;;3.60;2.90;;;;;;;;;;5055241;28;20063;-78
2021/09/22 01:26:33;;;;;;;3.08;2.53;;;;;;;;;;5056947;28;20035;-80
2021/09/22 01:29:17;;;;;;;5.47;2.90;;;;;;;;;;5059661;28;20060;-80
2021/09/22 01:32:02;;;;;;;4.00;2.70;;;;;;;;;;5077809;28;20044;-80
2021/09/22 01:34:46;;;;;;;3.42;2.70;;;;;;;;;;5053865;28;20067;-77
2021/09/22 01:37:32;;;;;;;3.53;2.47;;;;;;;;;;5065816;28;20124;-81
2021/09/22 01:40:17;;;;;;;4.00;2.50;;;;;;;;;;5048047;28;20039;-80
2021/09/22 01:43:01;;;;;;;3.88;2.72;;;;;;;;;;5054970;28;20121;-81
2021/09/22 01:45:46;;;;;;;3.60;2.60;;;;;;;;;;5069592;28;20397;-81
2021/09/22 01:48:31;;;;;;;3.50;2.60;;;;;;;;;;5073155;28;20508;-81
2021/09/22 01:51:15;;;;;;;3.50;2.78;;;;;;;;;;5054481;28;20149;-81
2021/09/22 01:53:59;;;;;;;3.28;2.50;;;;;;;;;;5074338;28;20039;-81
2021/09/22 01:56:44;;;;;;;3.38;2.47;;;;;;;;;;5069165;28;20508;-81
2021/09/22 01:59:28;;;;;;;3.50;2.58;;;;;;;;;;5052363;28;20032;-81
2021/09/22 02:02:13;;;;;;;2.72;2.35;;;;;;;;;;5080748;28;20515;-80
2021/09/22 02:04:58;;;;;;;4.75;2.70;;;;;;;;;;5076162;28;20043;-81
2021/09/22 02:07:43;;;;;;;3.72;2.85;;;;;;;;;;5088238;28;20089;-81
2021/09/22 02:10:27;;;;;;;4.70;2.80;;;;;;;;;;5063588;28;20116;-80
2021/09/22 02:13:11;;;;;;;4.30;2.58;;;;;;;;;;5075771;28;20039;-81
2021/09/22 02:15:56;;;;;;;3.78;2.90;;;;;;;;;;5059499;28;20505;-81
2021/09/22 02:18:40;;;;;;;3.65;2.60;;;;;;;;;;5054921;28;20043;-81
2021/09/22 02:21:25;;;;;;;4.32;2.70;;;;;;;;;;5089538;28;20541;-81
2021/09/22 02:24:09;;;;;;;4.35;2.78;;;;;;;;;;5059887;28;20451;-81
2021/09/22 02:26:54;;;;;;;4.18;2.90;;;;;;;;;;5067972;28;20086;-81
2021/09/22 02:29:39;;;;;;;3.50;2.65;;;;;;;;;;5069768;28;20050;-81
2021/09/22 02:32:24;;;;;;;4.20;2.72;;;;;;;;;;5071838;28;20031;-81
2021/09/22 02:35:09;;;;;;;3.58;2.65;;;;;;;;;;5073314;28;20086;-80
2021/09/22 02:37:54;;;;;;;4.32;3.10;;;;;;;;;;5055813;28;20093;-81
2021/09/22 02:40:38;;;;;;;3.83;2.45;;;;;;;;;;5078499;28;20090;-80
2021/09/22 02:43:23;;;;;;;3.78;2.90;;;;;;;;;;5041134;28;20635;-81
2021/09/22 02:46:07;;;;;;;2.95;2.30;;;;;;;;;;5050104;28;20102;-81
2021/09/22 02:48:51;;;;;;;3.70;2.92;;;;;;;;;;5080719;28;20039;-80
2021/09/22 02:51:36;;;;;;;3.60;2.67;;;;;;;;;;5060967;28;20051;-80
2021/09/22 02:54:20;;;;;;;3.95;2.45;;;;;;;;;;5068597;28;20129;-79
2021/09/22 02:57:05;;;;;;;5.10;2.67;;;;;;;;;;5078090;28;20623;-80
2021/09/22 02:59:50;;;;;;;3.75;2.88;;;;;;;;;;5070777;28;20448;-80
2021/09/22 03:02:34;;;;;;;4.15;2.83;;;;;;;;;;5081822;28;20404;-80
2021/09/22 03:05:19;;;;;;;3.50;2.70;;;;;;;;;;5073493;28;20114;-80
2021/09/22 03:08:04;;;;;;;3.58;2.30;;;;;;;;;;5073435;28;20089;-80
2021/09/22 03:10:48;;;;;;;3.28;2.45;;;;;;;;;;5061040;28;20036;-80
2021/09/22 03:13:33;;;;;;;4.15;2.75;;;;;;;;;;5057978;28;20047;-80
2021/09/22 03:16:18;;;;;;;3.55;2.20;;;;;;;;;;5082541;28;20050;-80
2021/09/22 03:19:02;;;;;;;3.65;2.40;;;;;;;;;;5070828;28;20036;-80
2021/09/22 03:21:47;;;;;;;4.18;2.63;;;;;;;;;;5048265;28;20107;-80
2021/09/22 03:24:32;;;;;;;3.45;2.42;;;;;;;;;;5061907;28;20524;-80
2021/09/22 03:27:16;;;;;;;3.75;2.47;;;;;;;;;;5068895;28;20401;-81
2021/09/22 03:30:01;;;;;;;3.90;2.50;;;;;;;;;;5081122;28;20116;-81
2021/09/22 03:32:45;;;;;;;2.90;2.33;;;;;;;;;;5080533;28;20584;-81
2021/09/22 03:35:30;;;;;;;3.22;2.33;;;;;;;;;;5071728;28;20035;-80
2021/09/22 03:38:14;;;;;;;5.90;2.60;;;;;;;;;;5054331;28;20047;-81
2021/09/22 03:40:59;;;;;;;5.63;2.58;;;;;;;;;;5066023;28;20040;-80
2021/09/22 03:43:44;;;;;;;4.00;2.70;;;;;;;;;;5057203;28;20043;-80
2021/09/22 03:46:28;;;;;;;3.60;2.40;;;;;;;;;;5087398;28;20035;-81
2021/09/22 03:49:13;;;;;;;3.35;2.33;;;;;;;;;;5068991;28;20074;-81
2021/09/22 03:51:58;;;;;;;4.78;2.90;;;;;;;;;;5064323;28;20048;-81
2021/09/22 03:54:42;;;;;;;3.20;2.60;;;;;;;;;;5070952;28;20046;-81
2021/09/22 03:57:26;;;;;;;2.90;2.35;;;;;;;;;;5079033;28;20594;-81
2021/09/22 04:00:11;;;;;;;4.82;2.60;;;;;;;;;;5073651;28;20031;-81
2021/09/22 04:02:56;;;;;;;3.92;2.42;;;;;;;;;;5052523;28;20075;-80
2021/09/22 04:05:41;;;;;;;4.45;2.67;;;;;;;;;;5057387;28;20110;-80
2021/09/22 04:08:25;;;;;;;3.10;2.47;;;;;;;;;;5065480;28;20158;-81
2021/09/22 04:11:09;;;;;;;3.25;2.45;;;;;;;;;;5075500;28;20178;-80
2021/09/22 04:13:54;;;;;;;3.25;2.67;;;;;;;;;;5076802;28;20156;-80
2021/09/22 04:16:39;;;;;;;3.05;2.30;;;;;;;;;;5078403;28;20051;-80
2021/09/22 04:19:23;;;;;;;3.25;2.25;;;;;;;;;;5069418;28;20766;-80
2021/09/22 04:22:08;;;;;;;3.42;2.28;;;;;;;;;;5075963;28;20035;-80
2021/09/22 04:24:52;;;;;;;3.58;2.25;;;;;;;;;;5059141;28;20125;-80
2021/09/22 04:27:37;;;;;;;4.28;2.53;;;;;;;;;;5048641;28;20056;-81
2021/09/22 04:30:21;;;;;;;5.18;2.17;;;;;;;;;;5072922;28;20059;-80
2021/09/22 04:33:06;;;;;;;3.60;2.22;;;;;;;;;;5059507;28;20031;-80
2021/09/22 04:35:52;;;;;;;3.05;2.28;;;;;;;;;;5078870;28;20131;-81
2021/09/22 04:38:37;;;;;;;3.20;2.35;;;;;;;;;;5071445;28;20043;-80
2021/09/22 04:41:22;;;;;;;2.60;2.30;;;;;;;;;;5078768;28;20880;-81
2021/09/22 04:44:07;;;;;;;4.00;2.67;;;;;;;;;;5061663;28;20501;-81
2021/09/22 04:46:51;;;;;;;3.50;2.08;;;;;;;;;;5048655;28;20036;-81
2021/09/22 04:49:36;;;;;;;2.58;1.90;;;;;;;;;;5054730;28;20043;-81
2021/09/22 04:52:21;;;;;;;2.83;2.00;;;;;;;;;;5084622;28;20061;-80
2021/09/22 04:55:06;;;;;;;3.55;2.20;;;;;;;;;;5066324;28;20384;-81
2021/09/22 04:57:50;;;;;;;2.85;2.15;;;;;;;;;;5046536;28;20126;-82
2021/09/22 05:00:35;;;;;;;3.20;2.03;;;;;;;;;;5076691;28;20178;-82
2021/09/22 05:03:19;;;;;;;4.35;1.85;;;;;;;;;;5071189;28;20044;-81
2021/09/22 05:06:04;;;;;;;4.28;1.98;;;;;;;;;;5067126;28;20045;-80
2021/09/22 05:08:48;;;;;;;2.70;1.75;;;;;;;;;;5050098;28;20044;-76
2021/09/22 05:11:33;;;;;;;2.80;1.90;;;;;;;;;;5063472;28;20163;-79
2021/09/22 05:14:17;;;;;;;3.33;2.15;;;;;;;;;;5083141;28;20040;-80
2021/09/22 05:17:02;;;;;;;3.17;1.80;;;;;;;;;;5069714;28;20086;-81
2021/09/22 05:19:46;;;;;;;3.88;1.92;;;;;;;;;;5067497;28;20119;-81
2021/09/22 05:22:31;;;;;;;3.35;1.83;;;;;;;;;;5055557;28;20515;-81
2021/09/22 05:25:16;;;;;;;3.03;1.90;;;;;;;;;;5053167;28;20098;-81
2021/09/22 05:28:00;;;;;;;2.65;1.90;;;;;;;;;;5067379;28;20036;-81
2021/09/22 05:30:45;;;;;;;3.17;1.90;;;;;;;;;;5068681;28;20047;-81
2021/09/22 05:33:29;;;;;;;2.60;1.90;;;;;;;;;;5059571;28;20035;-82
2021/09/22 05:36:14;;;;;;;3.53;1.67;;;;;;;;;;5054257;28;20048;-82
2021/09/22 05:38:59;;;;;;;2.30;1.80;;;;;;;;;;5049378;28;20638;-82
2021/09/22 05:41:43;;;;;;;2.33;1.80;;;;;;;;;;5050478;28;20119;-82
2021/09/22 05:44:28;;;;;;;2.40;1.80;;;;;;;;;;5049366;28;20047;-81
2021/09/22 05:47:12;;;;;;;3.17;1.90;;;;;;;;;;5070223;28;20170;-81
2021/09/22 05:49:57;;;;;;;3.42;2.30;;;;;;;;;;5068815;28;20508;-82
2021/09/22 05:52:41;;;;;;;2.95;2.15;;;;;;;;;;5065339;28;20102;-78
2021/09/22 05:55:26;;;;;;;2.78;1.92;;;;;;;;;;5055624;28;20040;-81
2021/09/22 05:58:15;;;;;;;2.95;1.77;;;;;;;;;;5054314;28;20043;-80
2021/09/22 06:01:00;;;;;;;3.75;1.70;;;;;;;;;;5067711;28;20680;-81
2021/09/22 06:03:44;;;;;;;3.22;1.67;;;;;;;;;;5055097;28;20488;-81
2021/09/22 06:06:29;;;;;;;2.47;1.50;;;;;;;;;;5066815;28;20054;-81
2021/09/22 06:09:13;;;;;;;3.35;1.70;;;;;;;;;;5057266;28;20039;-81
2021/09/22 06:11:58;;;;;;;3.00;1.65;;;;;;;;;;5048036;28;20047;-82
2021/09/22 06:14:43;;;;;;;2.53;1.75;;;;;;;;;;5047974;28;20095;-82
2021/09/22 06:17:27;;;;;;;2.78;1.60;;;;;;;;;;5049323;28;20052;-82
2021/09/22 06:20:12;;;;;;;1.98;1.48;;;;;;;;;;5048178;28;20040;-82
2021/09/22 06:22:56;;;;;;;3.47;1.70;;;;;;;;;;5052978;28;20043;-80
2021/09/22 06:25:41;;;;;;;3.15;1.67;;;;;;;;;;5068228;28;20417;-81
2021/09/22 06:28:25;;;;;;;2.88;1.60;;;;;;;;;;5048087;28;20504;-81
2021/09/22 06:31:10;;;;;;;2.90;1.50;;;;;;;;;;5048657;28;20039;-81
2021/09/22 06:33:54;;;;;;;3.20;1.65;;;;;;;;;;5053213;28;20063;-81
2021/09/22 06:36:39;;;;;;;3.25;1.80;;;;;;;;;;5048330;28;20094;-81
2021/09/22 06:39:23;;;;;;;2.30;1.42;;;;;;;;;;5044489;28;20079;-80
2021/09/22 06:42:08;;;;;;;4.10;1.67;;;;;;;;;;5049053;28;20044;-81
2021/09/22 06:44:52;;;;;;;2.30;1.50;;;;;;;;;;5067176;28;20394;-81
2021/09/22 06:47:37;;;;;;;3.83;1.73;;;;;;;;;;5061889;28;20042;-78
2021/09/22 06:50:21;;;;;;;2.75;1.60;;;;;;;;;;5044434;28;20036;-81
2021/09/22 06:53:05;;;;;;;2.72;1.60;;;;;;;;;;5066200;28;20042;-79
2021/09/22 06:55:50;;;;;;;2.53;1.67;;;;;;;;;;5064134;28;20093;-81
2021/09/22 06:58:35;;;;;;;2.55;1.42;;;;;;;;;;5048948;28;20043;-81
2021/09/22 07:01:19;;;;;;;2.10;1.50;;;;;;;;;;5038711;28;20103;-81
2021/09/22 07:04:04;;;;;;;2.47;1.50;;;;;;;;;;5061363;28;20151;-81
2021/09/22 07:06:49;;;;;;;3.28;1.58;;;;;;;;;;5047369;28;20537;-81
2021/09/22 07:09:33;;;;;;;2.55;1.70;;;;;;;;;;5048713;28;20043;-81
2021/09/22 07:12:18;;;;;;;3.47;1.50;;;;;;;;;;5051848;28;20477;-81
2021/09/22 07:15:03;;;;;;;3.30;1.20;;;;;;;;;;5049205;28;20463;-81
2021/09/22 07:17:47;;;;;;;2.17;1.40;;;;;;;;;;5047523;28;20056;-81
2021/09/22 07:20:32;;;;;;;2.47;1.65;;;;;;;;;;5033485;28;20079;-81
2021/09/22 07:23:16;;;;;;;2.97;1.35;;;;;;;;;;5052582;28;20036;-82
2021/09/22 07:26:03;;;;;;;3.55;1.30;;;;;;;;;;5067275;28;20401;-80
2021/09/22 07:28:47;;;;;;;2.33;1.50;;;;;;;;;;5048164;28;20040;-81
2021/09/22 07:31:32;;;;;;;2.50;1.30;;;;;;;;;;5063234;28;20504;-81
2021/09/22 07:34:17;;;;;;;3.67;1.48;;;;;;;;;;5052363;28;20034;-81
2021/09/22 07:37:07;;;;;;;2.85;1.52;;;;;;;;;;5054378;28;20455;-80
2021/09/22 07:39:52;;;;;;;2.88;1.40;;;;;;;;;;5066513;28;20519;-78
2021/09/22 07:42:37;;;;;;;3.75;1.52;;;;;;;;;;5055320;28;20051;-81
2021/09/22 07:45:21;;;;;;;2.50;1.50;;;;;;;;;;5048079;28;20190;-80
2021/09/22 07:48:06;;;;;;;2.22;1.30;;;;;;;;;;5048495;28;20036;-81
2021/09/22 07:50:51;;;;;;;2.13;1.33;;;;;;;;;;5041182;28;20075;-81
2021/09/22 07:53:35;;;;;;;3.05;1.50;;;;;;;;;;5052834;28;20035;-80
2021/09/22 07:56:20;;;;;;;2.50;1.45;;;;;;;;;;5065830;28;20074;-81
2021/09/22 07:59:05;;;;;;;2.83;1.50;;;;;;;;;;5067877;28;20063;-81
2021/09/22 08:01:49;;;;;;;1.92;1.50;;;;;;;;;;5048014;28;20067;-81
2021/09/22 08:04:34;;;;;;;3.95;1.30;;;;;;;;;;5048691;28;20047;-81
2021/09/22 08:07:18;;;;;;;5.00;1.60;;;;;;;;;;5036409;28;20150;-81
2021/09/22 08:10:03;;;;;;;3.40;1.52;;;;;;;;;;5052231;28;20039;-81
2021/09/22 08:12:49;;;;;;;2.55;1.50;;;;;;;;;;5065534;28;20131;-81
2021/09/22 08:15:34;;;;;;;4.72;1.58;;;;;;;;;;5047579;28;20044;-81
2021/09/22 08:18:19;;;;;;;2.15;1.30;;;;;;;;;;5062836;28;20047;-81
2021/09/22 08:21:03;;;;;;;2.08;1.35;;;;;;;;;;5064819;28;20088;-81
2021/09/22 08:23:48;;;;;;;2.65;1.30;;;;;;;;;;5072529;28;20050;-78
2021/09/22 08:26:32;;;;;;;2.05;1.35;;;;;;;;;;5052279;28;20464;-81
2021/09/22 08:29:17;;;;;;;2.53;1.50;;;;;;;;;;5065706;28;20083;-81
2021/09/22 08:32:01;;;;;;;2.53;1.38;;;;;;;;;;5064479;28;20515;-81
2021/09/22 08:34:46;;;;;;;2.22;1.30;;;;;;;;;;5059892;28;20119;-82
2021/09/22 08:37:30;;;;;;;3.83;1.45;;;;;;;;;;5069437;28;20104;-81
2021/09/22 08:40:14;;;;;;;2.78;1.40;;;;;;;;;;5056539;28;20629;-81
2021/09/22 08:42:59;;;;;;;3.45;1.33;;;;;;;;;;5054783;28;20107;-80
2021/09/22 08:45:44;;;;;;;2.75;1.40;;;;;;;;;;5052647;28;20094;-80
2021/09/22 08:48:28;;;;;;;2.55;1.50;;;;;;;;;;5064951;28;20039;-81
2021/09/22 08:51:13;;;;;;;2.47;1.75;;;;;;;;;;5067578;28;20032;-81
2021/09/22 08:53:58;;;;;;;2.42;1.35;;;;;;;;;;5070050;28;20132;-81
2021/09/22 08:56:43;;;;;;;2.50;1.48;;;;;;;;;;5068077;28;20087;-76
2021/09/22 08:59:27;;;;;;;1.75;1.25;;;;;;;;;;5063814;28;20098;-81
2021/09/22 09:02:16;;;;;;;3.53;1.75;;;;;;;;;;5046670;28;20039;-80
2021/09/22 09:05:02;;;;;;;2.25;1.30;;;;;;;;;;5049671;28;20425;-80
2021/09/22 09:07:52;;;;;;;1.77;1.20;;;;;;;;;;5052250;28;20126;-80
2021/09/22 09:10:37;;;;;;;2.17;1.08;;;;;;;;;;5058576;28;20071;-81
2021/09/22 09:13:21;;;;;;;2.60;1.30;;;;;;;;;;5062051;28;20067;-81
2021/09/22 09:16:14;;;;;;;2.40;1.30;;;;;;;;;;5068730;28;20560;-81
2021/09/22 09:18:59;;;;;;;2.17;1.23;;;;;;;;;;5060594;28;20071;-80
2021/09/22 09:22:13;;;;;;;3.38;1.38;;;;;;;;;;5065149;28;20055;-81
2021/09/22 09:24:57;;;;;;;1.77;1.30;;;;;;;;;;5051025;28;20044;-81
2021/09/22 09:27:42;;;;;;;2.50;1.15;;;;;;;;;;5067262;28;20692;-81
2021/09/22 09:30:27;;;;;;;2.67;1.38;;;;;;;;;;5051578;28;20036;-79
2021/09/22 09:33:14;;;;;;;2.90;1.52;;;;;;;;;;5062122;28;20044;-79
2021/09/22 09:36:00;;;;;;;1.75;1.20;;;;;;;;;;5061729;28;20055;-77
2021/09/22 09:38:54;;;;;;;2.20;1.40;;;;;;;;;;5048888;28;20535;-81
2021/09/22 09:41:49;;;;;;;3.75;1.52;;;;;;;;;;5056227;28;20036;-81
2021/09/22 09:44:34;;;;;;;2.65;1.58;;;;;;;;;;5066036;28;20059;-80
2021/09/22 09:47:18;;;;;;;2.13;1.40;;;;;;;;;;5061398;28;20178;-80
2021/09/22 09:50:19;;;;;;;2.42;1.30;;;;;;;;;;5051570;28;20141;-81
2021/09/22 09:53:03;;;;;;;1.75;1.25;;;;;;;;;;5053326;28;20047;-79
2021/09/22 09:55:48;;;;;;;3.15;1.35;;;;;;;;;;5044459;28;20043;-79
2021/09/22 09:58:43;;;;;;;1.90;1.20;;;;;;;;;;5045786;28;20821;-80
2021/09/22 10:01:42;;;;;;;2.17;1.40;;;;;;;;;;5053144;28;20174;-80
2021/09/22 10:04:27;;;;;;;3.72;1.38;;;;;;;;;;5051883;28;20054;-79
2021/09/22 10:07:11;;;;;;;2.10;1.40;;;;;;;;;;5066042;28;20040;-80
2021/09/22 10:09:55;;;;;;;3.13;1.40;;;;;;;;;;5064062;28;20059;-78
2021/09/22 10:12:41;;;;;;;2.92;1.20;;;;;;;;;;5045527;28;20044;-79
2021/09/22 10:15:29;;;;;;;2.38;1.33;;;;;;;;;;5047166;28;20094;-79
2021/09/22 10:18:14;;;;;;;2.65;1.60;;;;;;;;;;5038279;28;20555;-80
2021/09/22 10:20:59;;;;;;;2.85;1.20;;;;;;;;;;5050774;28;20099;-79
2021/09/22 10:23:43;;;;;;;2.85;1.35;;;;;;;;;;5059204;28;20059;-80
2021/09/22 10:26:28;;;;;;;2.10;1.27;;;;;;;;;;5048096;28;20043;-79
2021/09/22 10:29:19;;;;;;;2.42;1.45;;;;;;;;;;5054101;28;20139;-78
2021/09/22 10:32:04;;;;;;;2.63;1.40;;;;;;;;;;5053658;28;20043;-80
2021/09/22 10:34:49;;;;;;;3.05;1.40;;;;;;;;;;5064644;28;20392;-79
2021/09/22 10:37:34;;;;;;;2.17;1.35;;;;;;;;;;5052890;28;20149;-79
2021/09/22 10:40:19;;;;;;;2.78;1.40;;;;;;;;;;5058642;28;20497;-80
2021/09/22 10:43:19;;;;;;;2.58;1.50;;;;;;;;;;5049326;28;20051;-80
2021/09/22 10:46:07;;;;;;;2.55;1.40;;;;;;;;;;5047590;28;20140;-80
2021/09/22 10:48:56;;;;;;;2.83;1.50;;;;;;;;;;5060415;28;20027;-79
2021/09/22 10:51:44;;;;;;;1.70;1.40;;;;;;;;;;5055099;28;20056;-80
2021/09/22 10:54:30;;;;;;;2.58;1.50;;;;;;;;;;5056323;28;20034;-81
2021/09/22 10:57:15;;;;;;;3.83;1.33;;;;;;;;;;5067911;28;20109;-79
2021/09/22 11:00:10;;;;;;;1.75;1.25;;;;;;;;;;5056417;28;20086;-80
2021/09/22 11:02:55;;;;;;;2.67;1.42;;;;;;;;;;5052272;28;20086;-81
2021/09/22 11:05:44;;;;;;;3.75;1.42;;;;;;;;;;5064665;28;20055;-80
2021/09/22 11:08:34;;;;;;;2.53;1.50;;;;;;;;;;5065507;28;20571;-79
2021/09/22 11:11:19;;;;;;;2.00;1.40;;;;;;;;;;5075262;28;20038;-80
2021/09/22 11:14:04;;;;;;;3.42;1.48;;;;;;;;;;5069621;28;20078;-80
2021/09/22 11:16:48;;;;;;;3.35;1.40;;;;;;;;;;5078431;28;20565;-80
2021/09/22 11:19:33;;;;;;;2.97;1.50;;;;;;;;;;5065815;28;20032;-80
2021/09/22 11:22:24;;;;;;;2.50;1.20;;;;;;;;;;5061064;28;20063;-80
2021/09/22 11:25:09;;;;;;;2.85;1.30;;;;;;;;;;5065331;28;20082;-80
2021/09/22 11:27:54;;;;;;;2.72;1.40;;;;;;;;;;5048887;28;20043;-80
2021/09/22 11:30:40;;;;;;;2.55;1.40;;;;;;;;;;5057080;28;20055;-80
2021/09/22 11:33:25;;;;;;;2.40;1.50;;;;;;;;;;5054844;28;20089;-79
2021/09/22 11:36:10;;;;;;;5.30;1.40;;;;;;;;;;5061465;28;20063;-80
2021/09/22 11:38:55;;;;;;;5.38;1.60;;;;;;;;;;5066823;28;20813;-79
2021/09/22 11:41:39;;;;;;;3.92;1.42;;;;;;;;;;5058454;28;20401;-80
2021/09/22 11:44:31;;;;;;;4.35;2.47;;;;;;;;;;5088960;28;20066;-77
2021/09/22 11:47:16;;;;;;;3.75;1.95;;;;;;;;;;5052790;28;20504;-78
2021/09/22 11:50:02;;;;;;;5.43;2.75;;;;;;;;;;5064091;28;20053;-78
2021/09/22 11:52:47;;;;;;;4.07;2.42;;;;;;;;;;5061303;28;20046;-78
2021/09/22 11:55:31;;;;;;;4.10;2.03;;;;;;;;;;5059780;28;20082;-79
2021/09/22 11:58:17;;;;;;;5.65;2.85;;;;;;;;;;5060808;28;20079;-79
2021/09/22 12:01:02;;;;;;;4.05;2.60;;;;;;;;;;5037906;28;20039;-79
2021/09/22 12:03:47;;;;;;;6.05;3.53;;;;;;;;;;5065657;28;20047;-81
2021/09/22 12:06:32;;;;;;;4.30;2.72;;;;;;;;;;5044121;28;20122;-78
2021/09/22 12:09:17;;;;;;;4.40;2.58;;;;;;;;;;5062331;28;20086;-80
2021/09/22 12:12:05;;;;;;;4.28;2.60;;;;;;;;;;5047943;28;20107;-79
2021/09/22 12:14:50;;;;;;;5.88;2.90;;;;;;;;;;5065285;28;20051;-78
2021/09/22 12:17:35;;;;;;;4.70;2.55;;;;;;;;;;5081696;28;20050;-79
2021/09/22 12:20:20;;;;;;;5.38;2.75;;;;;;;;;;5061598;28;20043;-78
2021/09/22 12:23:05;;;;;;;6.50;3.30;;;;;;;;;;5063877;28;20090;-79
2021/09/22 12:25:50;;;;;;;5.55;3.50;;;;;;;;;;5058987;28;20047;-78
2021/09/22 12:28:34;;;;;;;3.88;2.85;;;;;;;;;;5061703;28;20113;-78
2021/09/22 12:31:20;;;;;;;6.07;3.50;;;;;;;;;;5064346;28;20446;-79
2021/09/22 12:34:04;;;;;;;3.58;2.63;;;;;;;;;;5065502;28;20039;-79
2021/09/22 12:36:49;;;;;;;4.05;2.28;;;;;;;;;;5080303;28;20055;-78
2021/09/22 12:39:33;;;;;;;4.80;3.25;;;;;;;;;;5061245;28;20150;-79
2021/09/22 12:42:18;;;;;;;4.07;2.20;;;;;;;;;;5044164;28;20094;-78
2021/09/22 12:45:03;;;;;;;6.65;3.15;;;;;;;;;;5073851;28;20069;-75
2021/09/22 12:47:49;;;;;;;5.07;2.88;;;;;;;;;;5057135;28;20451;-75
2021/09/22 12:50:34;;;;;;;5.18;2.90;;;;;;;;;;5066781;28;20574;-76
2021/09/22 12:53:19;;;;;;;5.85;2.72;;;;;;;;;;5075618;28;20078;-76
2021/09/22 12:56:04;;;;;;;6.30;2.97;;;;;;;;;;5078415;28;20060;-76
2021/09/22 12:58:49;;;;;;;6.50;3.15;;;;;;;;;;5076641;28;20042;-78
2021/09/22 13:01:34;;;;;;;4.57;2.65;;;;;;;;;;5059202;28;20129;-75
2021/09/22 13:04:24;;;;;;;5.45;3.05;;;;;;;;;;5063583;28;20043;-75
2021/09/22 13:07:09;;;;;;;5.23;3.30;;;;;;;;;;5063456;28;20066;-75
2021/09/22 13:10:01;;;;;;;5.38;2.70;;;;;;;;;;5079526;28;20059;-75
2021/09/22 13:12:51;;;;;;;4.40;2.65;;;;;;;;;;5065660;28;20039;-76
2021/09/22 13:15:35;;;;;;;4.35;2.92;;;;;;;;;;5040111;28;20044;-75
2021/09/22 13:18:21;;;;;;;4.63;2.70;;;;;;;;;;5053910;28;20090;-75
2021/09/22 13:21:06;;;;;;;5.43;2.90;;;;;;;;;;5062805;28;20086;-75
2021/09/22 13:23:52;;;;;;;4.70;2.85;;;;;;;;;;5079332;28;20027;-75
2021/09/22 13:26:37;;;;;;;6.53;3.75;;;;;;;;;;5084999;28;20492;-76
2021/09/22 13:29:22;;;;;;;5.70;3.70;;;;;;;;;;5085467;28;20067;-76
2021/09/22 13:32:06;;;;;;;5.90;3.53;;;;;;;;;;5064132;28;20043;-76
2021/09/22 13:34:51;;;;;;;6.05;3.45;;;;;;;;;;5073514;28;20773;-77
2021/09/22 13:37:35;;;;;;;5.22;3.15;;;;;;;;;;5082717;28;20149;-77
2021/09/22 13:40:20;;;;;;;6.32;3.40;;;;;;;;;;5066395;28;20097;-76
2021/09/22 13:43:05;;;;;;;6.65;3.47;;;;;;;;;;5064176;28;20063;-76
2021/09/22 13:45:49;;;;;;;4.47;3.13;;;;;;;;;;5064130;28;20067;-76
2021/09/22 13:48:34;;;;;;;5.85;3.78;;;;;;;;;;5084151;28;20067;-76
2021/09/22 13:51:19;;;;;;;6.30;3.38;;;;;;;;;;5071918;28;20236;-76
2021/09/22 13:54:04;;;;;;;5.93;3.47;;;;;;;;;;5085058;28;20074;-76
2021/09/22 13:56:49;;;;;;;4.72;3.53;;;;;;;;;;5086842;28;20058;-76
2021/09/22 13:59:33;;;;;;;5.38;3.20;;;;;;;;;;5083595;28;20127;-76
2021/09/22 14:02:18;;;;;;;4.38;2.78;;;;;;;;;;5077405;28;20047;-76
2021/09/22 14:05:03;;;;;;;4.32;3.10;;;;;;;;;;5056208;28;20715;-77
2021/09/22 14:07:48;;;;;;;7.25;3.60;;;;;;;;;;5056377;28;20089;-77
2021/09/22 14:10:34;;;;;;;5.40;3.60;;;;;;;;;;5070968;28;20030;-75
2021/09/22 14:13:19;;;;;;;4.65;3.75;;;;;;;;;;5076058;28;20165;-74
2021/09/22 14:16:04;;;;;;;6.38;3.70;;;;;;;;;;5055476;28;20047;-77
2021/09/22 14:18:49;;;;;;;5.22;3.63;;;;;;;;;;5063779;28;20044;-76
2021/09/22 14:21:33;;;;;;;6.05;3.72;;;;;;;;;;5065460;28;20071;-76
2021/09/22 14:24:19;;;;;;;6.35;3.60;;;;;;;;;;5064835;28;20043;-75
2021/09/22 14:27:06;;;;;;;5.65;3.58;;;;;;;;;;5050653;28;20098;-75
2021/09/22 14:29:51;;;;;;;5.93;3.22;;;;;;;;;;5051325;28;20093;-76
2021/09/22 14:32:35;;;;;;;4.88;3.38;;;;;;;;;;5079540;28;20535;-76
2021/09/22 14:35:20;;;;;;;4.63;3.15;;;;;;;;;;5080560;28;20093;-75
2021/09/22 14:38:05;;;;;;;4.38;3.05;;;;;;;;;;5067028;28;20543;-76
2021/09/22 14:40:50;;;;;;;5.80;3.05;;;;;;;;;;5063658;28;20493;-76
2021/09/22 14:43:35;;;;;;;4.97;3.05;;;;;;;;;;5063790;28;20086;-77
2021/09/22 14:46:20;;;;;;;5.47;3.13;;;;;;;;;;5067400;28;20246;-76
2021/09/22 14:49:05;;;;;;;4.35;3.00;;;;;;;;;;5078428;28;20039;-77
2021/09/22 14:51:49;;;;;;;5.13;2.80;;;;;;;;;;5085246;28;20047;-77
2021/09/22 14:54:35;;;;;;;4.65;2.67;;;;;;;;;;5071071;28;20313;-76
2021/09/22 14:57:20;;;;;;;6.05;3.17;;;;;;;;;;5082701;28;20618;-77
2021/09/22 15:00:05;;;;;;;4.18;2.72;;;;;;;;;;5065839;28;20039;-76
2021/09/22 15:02:49;;;;;;;5.50;2.67;;;;;;;;;;5083060;28;20140;-77
2021/09/22 15:05:35;;;;;;;4.57;2.80;;;;;;;;;;5085088;28;20058;-77
2021/09/22 15:08:20;;;;;;;4.72;2.60;;;;;;;;;;5073534;28;20110;-77
2021/09/22 15:11:05;;;;;;;6.10;2.70;;;;;;;;;;5075077;28;20047;-77
2021/09/22 15:13:49;;;;;;;6.82;3.03;;;;;;;;;;5050286;28;20097;-77
2021/09/22 15:16:34;;;;;;;5.25;2.97;;;;;;;;;;5085815;28;20117;-76
2021/09/22 15:19:18;;;;;;;3.33;2.40;;;;;;;;;;5062765;28;20036;-75
2021/09/22 15:22:03;;;;;;;3.05;2.33;;;;;;;;;;5083647;28;20512;-77
2021/09/22 15:24:48;;;;;;;3.20;2.40;;;;;;;;;;5085588;28;20039;-77
2021/09/22 15:27:32;;;;;;;3.80;2.30;;;;;;;;;;5082376;28;20035;-77
2021/09/22 15:30:18;;;;;;;3.45;2.33;;;;;;;;;;5067449;28;20039;-77
2021/09/22 15:33:02;;;;;;;3.88;2.40;;;;;;;;;;5041413;28;20043;-77
2021/09/22 15:35:47;;;;;;;4.07;2.33;;;;;;;;;;5045361;28;20055;-77
2021/09/22 15:38:31;;;;;;;4.32;2.40;;;;;;;;;;5078548;28;20046;-77
2021/09/22 15:41:16;;;;;;;3.42;2.20;;;;;;;;;;5064381;28;20039;-77
2021/09/22 15:44:00;;;;;;;3.45;2.13;;;;;;;;;;5063127;28;20138;-77
2021/09/22 15:46:45;;;;;;;3.72;2.40;;;;;;;;;;5070478;28;20035;-77
2021/09/22 15:49:30;;;;;;;3.70;2.13;;;;;;;;;;5071537;28;20096;-77
2021/09/22 15:52:14;;;;;;;3.40;2.10;;;;;;;;;;5073894;28;20529;-76
2021/09/22 15:54:59;;;;;;;3.45;2.22;;;;;;;;;;5063899;28;20043;-77
2021/09/22 15:57:43;;;;;;;2.45;1.85;;;;;;;;;;5069703;28;20083;-77
2021/09/22 16:00:28;;;;;;;4.90;2.55;;;;;;;;;;5066948;28;20571;-76
2021/09/22 16:03:12;;;;;;;3.60;1.92;;;;;;;;;;5078694;28;20141;-77
2021/09/22 16:05:58;;;;;;;3.00;1.88;;;;;;;;;;5073888;28;20166;-77
2021/09/22 16:08:43;;;;;;;2.80;1.90;;;;;;;;;;5063204;28;20048;-77
2021/09/22 16:11:28;;;;;;;2.95;1.73;;;;;;;;;;5082968;28;20042;-80
2021/09/22 16:14:12;;;;;;;3.67;1.80;;;;;;;;;;5045998;28;20031;-78
2021/09/22 16:16:57;;;;;;;2.35;1.70;;;;;;;;;;5043417;28;20087;-80
2021/09/22 16:19:41;;;;;;;3.50;1.77;;;;;;;;;;5064869;28;20089;-79
2021/09/22 16:22:26;;;;;;;4.90;2.13;;;;;;;;;;5063550;28;20182;-78
2021/09/22 16:25:11;;;;;;;3.53;1.63;;;;;;;;;;5062350;28;20030;-79
2021/09/22 16:27:56;;;;;;;5.03;1.90;;;;;;;;;;5066223;28;20035;-78
2021/09/22 16:30:41;;;;;;;3.58;1.80;;;;;;;;;;5061087;28;20079;-77